sensor_id;sensor_type;location;lat;lon;timestamp;temperature;humidity
78767;SHT31;68092;51.982;5.680;2023-11-19T00:00:25;15.7;77.0
78767;SHT31;68092;51.982;5.680;2023-11-19T00:02:54;15.7;77.0
78767;SHT31;68092;51.982;5.680;2023-11-19T00:05:23;15.8;77.0
78767;SHT31;68092;51.982;5.680;2023-11-19T00:07:51;15.8;76.9
78767;SHT31;68092;51.982;5.680;2023-11-19T00:10:20;15.8;76.9
78767;SHT31;68092;51.982;5.680;2023-11-19T00:12:49;15.8;76.9
78767;SHT31;68092;51.982;5.680;2023-11-19T00:15:18;15.8;76.7
78767;SHT31;68092;51.982;5.680;2023-11-19T00:17:48;15.9;76.7
78767;SHT31;68092;51.982;5.680;2023-11-19T00:20:17;15.9;76.6
78767;SHT31;68092;51.982;5.680;2023-11-19T00:22:48;15.9;76.5
78767;SHT31;68092;51.982;5.680;2023-11-19T00:25:20;15.9;76.4
78767;SHT31;68092;51.982;5.680;2023-11-19T00:27:49;15.9;76.4
78767;SHT31;68092;51.982;5.680;2023-11-19T00:30:19;15.9;76.3
78767;SHT31;68092;51.982;5.680;2023-11-19T00:32:48;15.9;76.2
78767;SHT31;68092;51.982;5.680;2023-11-19T00:35:17;16.0;76.1
78767;SHT31;68092;51.982;5.680;2023-11-19T00:37:45;16.0;76.0
78767;SHT31;68092;51.982;5.680;2023-11-19T00:40:15;16.0;75.9
78767;SHT31;68092;51.982;5.680;2023-11-19T00:42:44;16.0;75.8
78767;SHT31;68092;51.982;5.680;2023-11-19T00:45:14;16.0;75.7
78767;SHT31;68092;51.982;5.680;2023-11-19T00:47:42;16.0;75.7
78767;SHT31;68092;51.982;5.680;2023-11-19T00:50:11;16.0;75.6
78767;SHT31;68092;51.982;5.680;2023-11-19T00:52:40;16.1;75.5
78767;SHT31;68092;51.982;5.680;2023-11-19T00:55:09;16.1;75.5
78767;SHT31;68092;51.982;5.680;2023-11-19T00:57:38;16.1;75.3
78767;SHT31;68092;51.982;5.680;2023-11-19T01:00:07;16.1;75.2
78767;SHT31;68092;51.982;5.680;2023-11-19T01:02:42;16.1;75.2
78767;SHT31;68092;51.982;5.680;2023-11-19T01:05:11;16.1;75.2
78767;SHT31;68092;51.982;5.680;2023-11-19T01:07:42;16.1;75.2
78767;SHT31;68092;51.982;5.680;2023-11-19T01:10:11;16.1;75.1
78767;SHT31;68092;51.982;5.680;2023-11-19T01:12:39;16.1;75.0
78767;SHT31;68092;51.982;5.680;2023-11-19T01:15:09;16.1;74.9
78767;SHT31;68092;51.982;5.680;2023-11-19T01:17:38;16.1;74.8
78767;SHT31;68092;51.982;5.680;2023-11-19T01:20:07;16.1;74.7
78767;SHT31;68092;51.982;5.680;2023-11-19T01:22:39;16.1;74.8
78767;SHT31;68092;51.982;5.680;2023-11-19T01:25:08;16.1;74.6
78767;SHT31;68092;51.982;5.680;2023-11-19T01:27:37;16.1;74.6
78767;SHT31;68092;51.982;5.680;2023-11-19T01:30:06;16.1;74.5
78767;SHT31;68092;51.982;5.680;2023-11-19T01:32:35;16.1;74.4
78767;SHT31;68092;51.982;5.680;2023-11-19T01:35:05;16.1;74.3
78767;SHT31;68092;51.982;5.680;2023-11-19T01:37:34;16.2;74.2
78767;SHT31;68092;51.982;5.680;2023-11-19T01:40:04;16.2;74.0
78767;SHT31;68092;51.982;5.680;2023-11-19T01:42:38;16.2;74.0
78767;SHT31;68092;51.982;5.680;2023-11-19T01:45:08;16.2;73.9
78767;SHT31;68092;51.982;5.680;2023-11-19T01:47:37;16.2;73.8
78767;SHT31;68092;51.982;5.680;2023-11-19T01:50:08;16.2;73.7
78767;SHT31;68092;51.982;5.680;2023-11-19T01:52:38;16.2;73.5
78767;SHT31;68092;51.982;5.680;2023-11-19T01:55:10;16.2;73.6
78767;SHT31;68092;51.982;5.680;2023-11-19T01:57:40;16.2;73.7
78767;SHT31;68092;51.982;5.680;2023-11-19T02:00:10;16.2;73.6
78767;SHT31;68092;51.982;5.680;2023-11-19T02:02:41;16.2;73.5
78767;SHT31;68092;51.982;5.680;2023-11-19T02:05:11;16.2;73.4
78767;SHT31;68092;51.982;5.680;2023-11-19T02:07:41;16.2;73.4
78767;SHT31;68092;51.982;5.680;2023-11-19T02:10:10;16.1;73.2
78767;SHT31;68092;51.982;5.680;2023-11-19T02:12:42;16.1;73.2
78767;SHT31;68092;51.982;5.680;2023-11-19T02:15:11;16.1;73.1
78767;SHT31;68092;51.982;5.680;2023-11-19T02:17:41;16.1;73.0
78767;SHT31;68092;51.982;5.680;2023-11-19T02:20:10;16.1;72.8
78767;SHT31;68092;51.982;5.680;2023-11-19T02:22:42;16.1;72.8
78767;SHT31;68092;51.982;5.680;2023-11-19T02:25:17;16.1;72.6
78767;SHT31;68092;51.982;5.680;2023-11-19T02:27:58;16.1;72.5
78767;SHT31;68092;51.982;5.680;2023-11-19T02:30:28;16.1;72.4
78767;SHT31;68092;51.982;5.680;2023-11-19T02:32:59;16.1;72.4
78767;SHT31;68092;51.982;5.680;2023-11-19T02:35:32;16.1;72.3
78767;SHT31;68092;51.982;5.680;2023-11-19T02:38:01;16.1;72.2
78767;SHT31;68092;51.982;5.680;2023-11-19T02:40:33;16.1;72.0
78767;SHT31;68092;51.982;5.680;2023-11-19T02:43:03;16.1;71.9
78767;SHT31;68092;51.982;5.680;2023-11-19T02:45:32;16.1;71.6
78767;SHT31;68092;51.982;5.680;2023-11-19T02:48:02;16.0;71.5
78767;SHT31;68092;51.982;5.680;2023-11-19T02:50:34;16.0;71.4
78767;SHT31;68092;51.982;5.680;2023-11-19T02:53:03;16.0;71.6
78767;SHT31;68092;51.982;5.680;2023-11-19T02:55:33;16.0;71.3
78767;SHT31;68092;51.982;5.680;2023-11-19T02:58:04;16.0;71.2
78767;SHT31;68092;51.982;5.680;2023-11-19T03:00:40;16.0;71.1
78767;SHT31;68092;51.982;5.680;2023-11-19T03:03:13;16.0;70.9
78767;SHT31;68092;51.982;5.680;2023-11-19T03:05:47;16.0;70.7
78767;SHT31;68092;51.982;5.680;2023-11-19T03:08:16;15.9;70.7
78767;SHT31;68092;51.982;5.680;2023-11-19T03:10:47;15.9;70.6
78767;SHT31;68092;51.982;5.680;2023-11-19T03:13:16;15.9;70.5
78767;SHT31;68092;51.982;5.680;2023-11-19T03:15:45;15.9;70.4
78767;SHT31;68092;51.982;5.680;2023-11-19T03:18:14;15.9;70.4
78767;SHT31;68092;51.982;5.680;2023-11-19T03:20:43;15.8;70.6
78767;SHT31;68092;51.982;5.680;2023-11-19T03:23:13;15.8;70.6
78767;SHT31;68092;51.982;5.680;2023-11-19T03:25:41;15.8;70.4
78767;SHT31;68092;51.982;5.680;2023-11-19T03:28:10;15.8;70.3
78767;SHT31;68092;51.982;5.680;2023-11-19T03:30:39;15.8;70.2
78767;SHT31;68092;51.982;5.680;2023-11-19T03:33:08;15.8;70.1
78767;SHT31;68092;51.982;5.680;2023-11-19T03:35:36;15.8;70.1
78767;SHT31;68092;51.982;5.680;2023-11-19T03:38:09;15.8;69.9
78767;SHT31;68092;51.982;5.680;2023-11-19T03:40:37;15.7;69.9
78767;SHT31;68092;51.982;5.680;2023-11-19T03:43:07;15.7;69.7
78767;SHT31;68092;51.982;5.680;2023-11-19T03:45:35;15.7;69.7
78767;SHT31;68092;51.982;5.680;2023-11-19T03:48:05;15.7;69.6
78767;SHT31;68092;51.982;5.680;2023-11-19T03:50:33;15.7;69.6
78767;SHT31;68092;51.982;5.680;2023-11-19T03:53:03;15.7;69.6
78767;SHT31;68092;51.982;5.680;2023-11-19T03:55:32;15.6;69.5
78767;SHT31;68092;51.982;5.680;2023-11-19T03:58:01;15.6;69.6
78767;SHT31;68092;51.982;5.680;2023-11-19T04:00:29;15.6;69.4
78767;SHT31;68092;51.982;5.680;2023-11-19T04:02:58;15.6;69.4
78767;SHT31;68092;51.982;5.680;2023-11-19T04:05:26;15.6;69.4
78767;SHT31;68092;51.982;5.680;2023-11-19T04:07:55;15.6;69.3
78767;SHT31;68092;51.982;5.680;2023-11-19T04:10:23;15.5;69.2
78767;SHT31;68092;51.982;5.680;2023-11-19T04:12:53;15.5;69.3
78767;SHT31;68092;51.982;5.680;2023-11-19T04:15:22;15.5;69.1
78767;SHT31;68092;51.982;5.680;2023-11-19T04:17:51;15.5;69.0
78767;SHT31;68092;51.982;5.680;2023-11-19T04:20:20;15.5;68.9
78767;SHT31;68092;51.982;5.680;2023-11-19T04:22:49;15.4;68.9
78767;SHT31;68092;51.982;5.680;2023-11-19T04:25:18;15.4;69.0
78767;SHT31;68092;51.982;5.680;2023-11-19T04:27:47;15.4;68.8
78767;SHT31;68092;51.982;5.680;2023-11-19T04:30:16;15.4;68.6
78767;SHT31;68092;51.982;5.680;2023-11-19T04:32:44;15.4;68.5
78767;SHT31;68092;51.982;5.680;2023-11-19T04:35:15;15.3;68.5
78767;SHT31;68092;51.982;5.680;2023-11-19T04:37:43;15.3;68.5
78767;SHT31;68092;51.982;5.680;2023-11-19T04:40:14;15.3;68.6
78767;SHT31;68092;51.982;5.680;2023-11-19T04:42:44;15.2;68.8
78767;SHT31;68092;51.982;5.680;2023-11-19T04:45:13;15.2;68.8
78767;SHT31;68092;51.982;5.680;2023-11-19T04:47:44;15.2;69.0
78767;SHT31;68092;51.982;5.680;2023-11-19T04:50:15;15.2;68.9
78767;SHT31;68092;51.982;5.680;2023-11-19T04:52:43;15.1;68.9
78767;SHT31;68092;51.982;5.680;2023-11-19T04:55:14;15.1;68.7
78767;SHT31;68092;51.982;5.680;2023-11-19T04:57:45;15.1;68.8
78767;SHT31;68092;51.982;5.680;2023-11-19T05:00:14;15.1;68.7
78767;SHT31;68092;51.982;5.680;2023-11-19T05:02:43;15.1;68.6
78767;SHT31;68092;51.982;5.680;2023-11-19T05:05:11;15.1;68.7
78767;SHT31;68092;51.982;5.680;2023-11-19T05:07:40;15.0;68.9
78767;SHT31;68092;51.982;5.680;2023-11-19T05:10:10;15.0;68.7
78767;SHT31;68092;51.982;5.680;2023-11-19T05:12:38;15.0;68.6
78767;SHT31;68092;51.982;5.680;2023-11-19T05:15:10;15.0;68.6
78767;SHT31;68092;51.982;5.680;2023-11-19T05:17:39;15.0;68.7
78767;SHT31;68092;51.982;5.680;2023-11-19T05:20:08;15.0;68.9
78767;SHT31;68092;51.982;5.680;2023-11-19T05:22:41;15.0;69.0
78767;SHT31;68092;51.982;5.680;2023-11-19T05:25:10;15.0;69.0
78767;SHT31;68092;51.982;5.680;2023-11-19T05:27:39;15.0;68.8
78767;SHT31;68092;51.982;5.680;2023-11-19T05:30:08;15.0;68.8
78767;SHT31;68092;51.982;5.680;2023-11-19T05:32:37;14.9;68.9
78767;SHT31;68092;51.982;5.680;2023-11-19T05:35:09;14.9;68.7
78767;SHT31;68092;51.982;5.680;2023-11-19T05:37:38;14.9;68.8
78767;SHT31;68092;51.982;5.680;2023-11-19T05:40:10;14.9;69.0
78767;SHT31;68092;51.982;5.680;2023-11-19T05:42:41;14.9;68.7
78767;SHT31;68092;51.982;5.680;2023-11-19T05:45:17;14.9;68.8
78767;SHT31;68092;51.982;5.680;2023-11-19T05:47:45;14.9;68.7
78767;SHT31;68092;51.982;5.680;2023-11-19T05:50:14;14.9;68.7
78767;SHT31;68092;51.982;5.680;2023-11-19T05:52:42;14.9;68.8
78767;SHT31;68092;51.982;5.680;2023-11-19T05:55:11;14.9;68.8
78767;SHT31;68092;51.982;5.680;2023-11-19T05:57:40;14.9;68.7
78767;SHT31;68092;51.982;5.680;2023-11-19T06:00:09;14.9;68.8
78767;SHT31;68092;51.982;5.680;2023-11-19T06:02:39;14.9;68.8
78767;SHT31;68092;51.982;5.680;2023-11-19T06:05:11;14.9;68.8
78767;SHT31;68092;51.982;5.680;2023-11-19T06:07:40;14.9;68.9
78767;SHT31;68092;51.982;5.680;2023-11-19T06:10:11;14.8;68.8
78767;SHT31;68092;51.982;5.680;2023-11-19T06:12:45;14.8;68.9
78767;SHT31;68092;51.982;5.680;2023-11-19T06:15:14;14.8;68.9
78767;SHT31;68092;51.982;5.680;2023-11-19T06:17:44;14.8;69.0
78767;SHT31;68092;51.982;5.680;2023-11-19T06:20:15;14.8;68.9
78767;SHT31;68092;51.982;5.680;2023-11-19T06:22:47;14.8;68.9
78767;SHT31;68092;51.982;5.680;2023-11-19T06:25:16;14.8;68.8
78767;SHT31;68092;51.982;5.680;2023-11-19T06:27:45;14.8;68.8
78767;SHT31;68092;51.982;5.680;2023-11-19T06:30:14;14.8;68.8
78767;SHT31;68092;51.982;5.680;2023-11-19T06:32:42;14.8;68.7
78767;SHT31;68092;51.982;5.680;2023-11-19T06:35:11;14.8;68.7
78767;SHT31;68092;51.982;5.680;2023-11-19T06:37:41;14.9;68.6
78767;SHT31;68092;51.982;5.680;2023-11-19T06:40:13;14.9;68.7
78767;SHT31;68092;51.982;5.680;2023-11-19T06:42:43;14.9;68.6
78767;SHT31;68092;51.982;5.680;2023-11-19T06:45:11;14.9;68.6
78767;SHT31;68092;51.982;5.680;2023-11-19T06:47:42;14.9;68.6
78767;SHT31;68092;51.982;5.680;2023-11-19T06:50:13;14.9;68.5
78767;SHT31;68092;51.982;5.680;2023-11-19T06:52:45;14.9;68.4
78767;SHT31;68092;51.982;5.680;2023-11-19T06:55:17;14.9;68.5
78767;SHT31;68092;51.982;5.680;2023-11-19T06:57:49;14.9;68.5
78767;SHT31;68092;51.982;5.680;2023-11-19T07:00:21;14.9;68.4
78767;SHT31;68092;51.982;5.680;2023-11-19T07:02:50;14.9;68.3
78767;SHT31;68092;51.982;5.680;2023-11-19T07:05:18;14.9;68.3
78767;SHT31;68092;51.982;5.680;2023-11-19T07:07:47;14.9;68.4
78767;SHT31;68092;51.982;5.680;2023-11-19T07:10:15;14.9;68.5
78767;SHT31;68092;51.982;5.680;2023-11-19T07:12:46;14.8;68.4
78767;SHT31;68092;51.982;5.680;2023-11-19T07:15:20;14.8;68.5
78767;SHT31;68092;51.982;5.680;2023-11-19T07:17:48;14.8;68.5
78767;SHT31;68092;51.982;5.680;2023-11-19T07:20:20;14.8;68.6
78767;SHT31;68092;51.982;5.680;2023-11-19T07:22:49;14.8;68.5
78767;SHT31;68092;51.982;5.680;2023-11-19T07:25:18;14.8;68.5
78767;SHT31;68092;51.982;5.680;2023-11-19T07:27:47;14.8;68.3
78767;SHT31;68092;51.982;5.680;2023-11-19T07:30:15;14.8;68.2
78767;SHT31;68092;51.982;5.680;2023-11-19T07:32:44;14.8;68.1
78767;SHT31;68092;51.982;5.680;2023-11-19T07:35:12;14.8;68.1
78767;SHT31;68092;51.982;5.680;2023-11-19T07:37:42;14.8;68.4
78767;SHT31;68092;51.982;5.680;2023-11-19T07:40:13;14.8;68.4
78767;SHT31;68092;51.982;5.680;2023-11-19T07:42:42;14.8;68.4
78767;SHT31;68092;51.982;5.680;2023-11-19T07:45:10;14.8;68.6
78767;SHT31;68092;51.982;5.680;2023-11-19T07:47:39;14.8;68.6
78767;SHT31;68092;51.982;5.680;2023-11-19T07:50:08;14.7;68.7
78767;SHT31;68092;51.982;5.680;2023-11-19T07:52:37;14.7;68.9
78767;SHT31;68092;51.982;5.680;2023-11-19T07:55:06;14.7;69.0
78767;SHT31;68092;51.982;5.680;2023-11-19T07:57:35;14.7;69.0
78767;SHT31;68092;51.982;5.680;2023-11-19T08:00:04;14.7;69.2
78767;SHT31;68092;51.982;5.680;2023-11-19T08:02:33;14.8;69.1
78767;SHT31;68092;51.982;5.680;2023-11-19T08:05:02;14.8;69.1
78767;SHT31;68092;51.982;5.680;2023-11-19T08:07:31;14.8;69.0
78767;SHT31;68092;51.982;5.680;2023-11-19T08:10:01;14.8;69.0
78767;SHT31;68092;51.982;5.680;2023-11-19T08:12:31;14.8;68.7
78767;SHT31;68092;51.982;5.680;2023-11-19T08:15:01;14.8;68.9
78767;SHT31;68092;51.982;5.680;2023-11-19T08:17:31;14.8;68.7
78767;SHT31;68092;51.982;5.680;2023-11-19T08:19:59;14.8;68.8
78767;SHT31;68092;51.982;5.680;2023-11-19T08:22:31;14.8;69.0
78767;SHT31;68092;51.982;5.680;2023-11-19T08:25:00;14.8;68.8
78767;SHT31;68092;51.982;5.680;2023-11-19T08:27:29;14.8;68.7
78767;SHT31;68092;51.982;5.680;2023-11-19T08:29:58;14.8;68.5
78767;SHT31;68092;51.982;5.680;2023-11-19T08:32:27;14.9;68.7
78767;SHT31;68092;51.982;5.680;2023-11-19T08:34:56;14.9;68.3
78767;SHT31;68092;51.982;5.680;2023-11-19T08:37:24;14.9;68.4
78767;SHT31;68092;51.982;5.680;2023-11-19T08:39:55;14.9;68.5
78767;SHT31;68092;51.982;5.680;2023-11-19T08:42:26;14.9;68.4
78767;SHT31;68092;51.982;5.680;2023-11-19T08:44:56;14.9;68.4
78767;SHT31;68092;51.982;5.680;2023-11-19T08:47:26;14.9;68.5
78767;SHT31;68092;51.982;5.680;2023-11-19T08:49:54;14.9;68.2
78767;SHT31;68092;51.982;5.680;2023-11-19T08:52:23;15.0;68.4
78767;SHT31;68092;51.982;5.680;2023-11-19T08:54:52;15.0;68.2
78767;SHT31;68092;51.982;5.680;2023-11-19T08:57:20;15.0;68.3
78767;SHT31;68092;51.982;5.680;2023-11-19T08:59:49;15.0;68.1
78767;SHT31;68092;51.982;5.680;2023-11-19T09:02:17;15.0;67.7
78767;SHT31;68092;51.982;5.680;2023-11-19T09:04:46;15.0;67.7
78767;SHT31;68092;51.982;5.680;2023-11-19T09:07:14;15.1;67.8
78767;SHT31;68092;51.982;5.680;2023-11-19T09:09:43;15.1;67.7
78767;SHT31;68092;51.982;5.680;2023-11-19T09:12:12;15.1;67.6
78767;SHT31;68092;51.982;5.680;2023-11-19T09:14:40;15.1;67.6
78767;SHT31;68092;51.982;5.680;2023-11-19T09:17:09;15.1;67.4
78767;SHT31;68092;51.982;5.680;2023-11-19T09:19:38;15.2;67.4
78767;SHT31;68092;51.982;5.680;2023-11-19T09:22:07;15.2;67.9
78767;SHT31;68092;51.982;5.680;2023-11-19T09:24:35;15.2;67.7
78767;SHT31;68092;51.982;5.680;2023-11-19T09:27:04;15.2;67.4
78767;SHT31;68092;51.982;5.680;2023-11-19T09:29:33;15.3;67.6
78767;SHT31;68092;51.982;5.680;2023-11-19T09:32:02;15.3;67.1
78767;SHT31;68092;51.982;5.680;2023-11-19T09:34:30;15.3;67.0
78767;SHT31;68092;51.982;5.680;2023-11-19T09:36:59;15.3;66.7
78767;SHT31;68092;51.982;5.680;2023-11-19T09:39:28;15.4;66.7
78767;SHT31;68092;51.982;5.680;2023-11-19T09:41:57;15.4;66.7
78767;SHT31;68092;51.982;5.680;2023-11-19T09:44:26;15.4;66.5
78767;SHT31;68092;51.982;5.680;2023-11-19T09:46:58;15.4;66.8
78767;SHT31;68092;51.982;5.680;2023-11-19T09:49:28;15.4;66.9
78767;SHT31;68092;51.982;5.680;2023-11-19T09:51:57;15.4;66.8
78767;SHT31;68092;51.982;5.680;2023-11-19T09:54:26;15.4;66.9
78767;SHT31;68092;51.982;5.680;2023-11-19T09:56:57;15.4;66.8
78767;SHT31;68092;51.982;5.680;2023-11-19T09:59:29;15.4;66.7
78767;SHT31;68092;51.982;5.680;2023-11-19T10:02:00;15.4;67.1
78767;SHT31;68092;51.982;5.680;2023-11-19T10:04:30;15.4;67.0
78767;SHT31;68092;51.982;5.680;2023-11-19T10:06:58;15.5;66.5
78767;SHT31;68092;51.982;5.680;2023-11-19T10:09:27;15.5;66.4
78767;SHT31;68092;51.982;5.680;2023-11-19T10:11:55;15.5;66.2
78767;SHT31;68092;51.982;5.680;2023-11-19T10:14:24;15.5;65.9
78767;SHT31;68092;51.982;5.680;2023-11-19T10:16:56;15.5;65.9
78767;SHT31;68092;51.982;5.680;2023-11-19T10:19:25;15.5;66.1
78767;SHT31;68092;51.982;5.680;2023-11-19T10:21:55;15.5;66.4
78767;SHT31;68092;51.982;5.680;2023-11-19T10:24:33;15.5;66.5
78767;SHT31;68092;51.982;5.680;2023-11-19T10:27:06;15.5;66.2
78767;SHT31;68092;51.982;5.680;2023-11-19T10:29:36;15.5;66.0
78767;SHT31;68092;51.982;5.680;2023-11-19T10:32:05;15.5;65.8
78767;SHT31;68092;51.982;5.680;2023-11-19T10:34:34;15.6;65.8
78767;SHT31;68092;51.982;5.680;2023-11-19T10:37:04;15.6;66.0
78767;SHT31;68092;51.982;5.680;2023-11-19T10:39:54;15.6;65.9
78767;SHT31;68092;51.982;5.680;2023-11-19T10:42:23;15.6;65.5
78767;SHT31;68092;51.982;5.680;2023-11-19T10:44:51;15.6;65.7
78767;SHT31;68092;51.982;5.680;2023-11-19T10:47:23;15.6;65.6
78767;SHT31;68092;51.982;5.680;2023-11-19T10:49:54;15.6;65.6
78767;SHT31;68092;51.982;5.680;2023-11-19T10:52:23;15.7;65.6
78767;SHT31;68092;51.982;5.680;2023-11-19T10:54:58;15.7;65.2
78767;SHT31;68092;51.982;5.680;2023-11-19T10:57:30;15.7;64.6
78767;SHT31;68092;51.982;5.680;2023-11-19T11:00:03;15.7;65.0
78767;SHT31;68092;51.982;5.680;2023-11-19T11:02:41;15.7;65.1
78767;SHT31;68092;51.982;5.680;2023-11-19T11:05:15;15.7;65.1
78767;SHT31;68092;51.982;5.680;2023-11-19T11:07:45;15.7;65.4
78767;SHT31;68092;51.982;5.680;2023-11-19T11:10:14;15.8;65.7
78767;SHT31;68092;51.982;5.680;2023-11-19T11:12:46;15.8;64.7
78767;SHT31;68092;51.982;5.680;2023-11-19T11:15:18;15.8;64.6
78767;SHT31;68092;51.982;5.680;2023-11-19T11:17:49;15.8;64.5
78767;SHT31;68092;51.982;5.680;2023-11-19T11:20:18;15.8;64.2
78767;SHT31;68092;51.982;5.680;2023-11-19T11:22:59;15.8;64.3
78767;SHT31;68092;51.982;5.680;2023-11-19T11:25:42;15.8;64.6
78767;SHT31;68092;51.982;5.680;2023-11-19T11:28:21;15.8;64.6
78767;SHT31;68092;51.982;5.680;2023-11-19T11:31:15;15.9;64.8
78767;SHT31;68092;51.982;5.680;2023-11-19T11:34:06;15.9;65.1
78767;SHT31;68092;51.982;5.680;2023-11-19T11:36:47;15.9;64.7
78767;SHT31;68092;51.982;5.680;2023-11-19T11:39:22;15.9;64.5
78767;SHT31;68092;51.982;5.680;2023-11-19T11:45:08;15.9;64.7
78767;SHT31;68092;51.982;5.680;2023-11-19T11:48:04;15.9;64.5
78767;SHT31;68092;51.982;5.680;2023-11-19T11:50:37;15.9;64.6
78767;SHT31;68092;51.982;5.680;2023-11-19T11:53:16;16.0;64.2
78767;SHT31;68092;51.982;5.680;2023-11-19T11:55:55;16.0;64.2
78767;SHT31;68092;51.982;5.680;2023-11-19T11:58:29;16.0;64.2
78767;SHT31;68092;51.982;5.680;2023-11-19T12:01:01;16.0;63.7
78767;SHT31;68092;51.982;5.680;2023-11-19T12:03:32;16.0;63.1
78767;SHT31;68092;51.982;5.680;2023-11-19T12:06:02;16.0;63.5
78767;SHT31;68092;51.982;5.680;2023-11-19T12:08:34;16.0;63.7
78767;SHT31;68092;51.982;5.680;2023-11-19T12:11:03;16.0;63.7
78767;SHT31;68092;51.982;5.680;2023-11-19T12:18:34;16.0;63.2
78767;SHT31;68092;51.982;5.680;2023-11-19T12:21:03;16.0;63.2
78767;SHT31;68092;51.982;5.680;2023-11-19T12:23:32;16.0;63.2
78767;SHT31;68092;51.982;5.680;2023-11-19T12:26:01;16.0;63.2
78767;SHT31;68092;51.982;5.680;2023-11-19T12:28:30;16.0;63.4
78767;SHT31;68092;51.982;5.680;2023-11-19T12:31:09;16.0;62.7
78767;SHT31;68092;51.982;5.680;2023-11-19T12:33:37;16.0;63.2
78767;SHT31;68092;51.982;5.680;2023-11-19T12:36:07;16.0;63.1
78767;SHT31;68092;51.982;5.680;2023-11-19T12:38:35;16.0;63.1
78767;SHT31;68092;51.982;5.680;2023-11-19T12:41:05;16.0;63.3
78767;SHT31;68092;51.982;5.680;2023-11-19T12:43:34;16.0;63.2
78767;SHT31;68092;51.982;5.680;2023-11-19T12:46:21;16.1;62.9
78767;SHT31;68092;51.982;5.680;2023-11-19T12:48:51;16.1;62.9
78767;SHT31;68092;51.982;5.680;2023-11-19T12:51:19;16.1;63.1
78767;SHT31;68092;51.982;5.680;2023-11-19T12:53:52;16.1;63.2
78767;SHT31;68092;51.982;5.680;2023-11-19T12:56:22;16.1;62.9
78767;SHT31;68092;51.982;5.680;2023-11-19T12:58:53;16.1;62.9
78767;SHT31;68092;51.982;5.680;2023-11-19T13:01:22;16.1;63.0
78767;SHT31;68092;51.982;5.680;2023-11-19T13:03:50;16.1;63.1
78767;SHT31;68092;51.982;5.680;2023-11-19T13:06:19;16.1;63.3
78767;SHT31;68092;51.982;5.680;2023-11-19T13:08:49;16.1;63.2
78767;SHT31;68092;51.982;5.680;2023-11-19T13:11:34;16.2;62.9
78767;SHT31;68092;51.982;5.680;2023-11-19T13:14:05;16.2;63.0
78767;SHT31;68092;51.982;5.680;2023-11-19T13:16:37;16.2;63.0
78767;SHT31;68092;51.982;5.680;2023-11-19T13:19:07;16.2;62.6
78767;SHT31;68092;51.982;5.680;2023-11-19T13:21:36;16.2;62.7
78767;SHT31;68092;51.982;5.680;2023-11-19T13:24:06;16.2;63.2
78767;SHT31;68092;51.982;5.680;2023-11-19T13:26:35;16.2;63.3
78767;SHT31;68092;51.982;5.680;2023-11-19T13:29:03;16.3;63.0
78767;SHT31;68092;51.982;5.680;2023-11-19T13:31:32;16.3;63.2
78767;SHT31;68092;51.982;5.680;2023-11-19T13:34:00;16.3;63.0
78767;SHT31;68092;51.982;5.680;2023-11-19T13:36:29;16.3;63.0
78767;SHT31;68092;51.982;5.680;2023-11-19T13:38:59;16.3;63.2
78767;SHT31;68092;51.982;5.680;2023-11-19T13:41:30;16.3;62.6
78767;SHT31;68092;51.982;5.680;2023-11-19T13:43:59;16.3;62.8
78767;SHT31;68092;51.982;5.680;2023-11-19T13:46:27;16.3;62.5
78767;SHT31;68092;51.982;5.680;2023-11-19T13:48:56;16.3;62.8
78767;SHT31;68092;51.982;5.680;2023-11-19T13:51:24;16.3;63.1
78767;SHT31;68092;51.982;5.680;2023-11-19T13:53:53;16.3;63.6
78767;SHT31;68092;51.982;5.680;2023-11-19T13:56:23;16.3;63.8
78767;SHT31;68092;51.982;5.680;2023-11-19T13:58:52;16.3;63.8
78767;SHT31;68092;51.982;5.680;2023-11-19T14:01:20;16.3;64.2
78767;SHT31;68092;51.982;5.680;2023-11-19T14:03:49;16.3;64.2
78767;SHT31;68092;51.982;5.680;2023-11-19T14:06:17;16.3;64.2
78767;SHT31;68092;51.982;5.680;2023-11-19T14:08:49;16.3;64.2
78767;SHT31;68092;51.982;5.680;2023-11-19T14:11:17;16.3;64.0
78767;SHT31;68092;51.982;5.680;2023-11-19T14:13:46;16.3;64.1
78767;SHT31;68092;51.982;5.680;2023-11-19T14:16:16;16.3;64.0
78767;SHT31;68092;51.982;5.680;2023-11-19T14:18:45;16.3;64.2
78767;SHT31;68092;51.982;5.680;2023-11-19T14:21:15;16.2;64.2
78767;SHT31;68092;51.982;5.680;2023-11-19T14:23:43;16.2;64.0
78767;SHT31;68092;51.982;5.680;2023-11-19T14:26:12;16.2;63.3
78767;SHT31;68092;51.982;5.680;2023-11-19T14:28:41;16.2;63.3
78767;SHT31;68092;51.982;5.680;2023-11-19T14:31:11;16.2;63.3
78767;SHT31;68092;51.982;5.680;2023-11-19T14:33:40;16.2;63.1
78767;SHT31;68092;51.982;5.680;2023-11-19T14:36:09;16.2;63.3
78767;SHT31;68092;51.982;5.680;2023-11-19T14:38:38;16.1;63.4
78767;SHT31;68092;51.982;5.680;2023-11-19T14:41:06;16.1;63.2
78767;SHT31;68092;51.982;5.680;2023-11-19T14:43:35;16.1;63.0
78767;SHT31;68092;51.982;5.680;2023-11-19T14:46:04;16.1;63.1
78767;SHT31;68092;51.982;5.680;2023-11-19T14:48:33;16.1;63.1
78767;SHT31;68092;51.982;5.680;2023-11-19T14:51:02;16.1;63.0
78767;SHT31;68092;51.982;5.680;2023-11-19T14:53:31;16.1;63.2
78767;SHT31;68092;51.982;5.680;2023-11-19T14:56:00;16.1;63.1
78767;SHT31;68092;51.982;5.680;2023-11-19T14:58:33;16.1;63.2
78767;SHT31;68092;51.982;5.680;2023-11-19T15:01:01;16.0;63.4
78767;SHT31;68092;51.982;5.680;2023-11-19T15:03:30;16.0;63.3
78767;SHT31;68092;51.982;5.680;2023-11-19T15:05:59;16.0;63.3
78767;SHT31;68092;51.982;5.680;2023-11-19T15:08:27;16.0;63.4
78767;SHT31;68092;51.982;5.680;2023-11-19T15:10:56;16.0;63.4
78767;SHT31;68092;51.982;5.680;2023-11-19T15:13:28;16.0;63.3
78767;SHT31;68092;51.982;5.680;2023-11-19T15:15:56;16.0;63.4
78767;SHT31;68092;51.982;5.680;2023-11-19T15:18:27;16.0;63.4
78767;SHT31;68092;51.982;5.680;2023-11-19T15:20:57;16.0;63.4
78767;SHT31;68092;51.982;5.680;2023-11-19T15:23:26;16.0;63.4
78767;SHT31;68092;51.982;5.680;2023-11-19T15:25:55;16.0;63.6
78767;SHT31;68092;51.982;5.680;2023-11-19T15:28:26;16.0;63.6
78767;SHT31;68092;51.982;5.680;2023-11-19T15:30:54;16.0;63.6
78767;SHT31;68092;51.982;5.680;2023-11-19T15:33:23;16.0;63.7
78767;SHT31;68092;51.982;5.680;2023-11-19T15:35:51;16.0;63.7
78767;SHT31;68092;51.982;5.680;2023-11-19T15:38:20;16.0;63.7
78767;SHT31;68092;51.982;5.680;2023-11-19T15:40:49;16.0;63.6
78767;SHT31;68092;51.982;5.680;2023-11-19T15:43:18;16.0;63.6
78767;SHT31;68092;51.982;5.680;2023-11-19T15:45:46;16.0;63.8
78767;SHT31;68092;51.982;5.680;2023-11-19T15:48:15;15.9;63.7
78767;SHT31;68092;51.982;5.680;2023-11-19T15:50:44;15.9;63.8
78767;SHT31;68092;51.982;5.680;2023-11-19T15:53:15;15.9;64.1
78767;SHT31;68092;51.982;5.680;2023-11-19T15:55:45;15.9;63.9
78767;SHT31;68092;51.982;5.680;2023-11-19T15:58:13;15.9;64.0
78767;SHT31;68092;51.982;5.680;2023-11-19T16:00:42;15.9;64.0
78767;SHT31;68092;51.982;5.680;2023-11-19T16:03:13;15.9;64.2
78767;SHT31;68092;51.982;5.680;2023-11-19T16:05:45;15.9;64.3
78767;SHT31;68092;51.982;5.680;2023-11-19T16:08:14;15.9;64.3
78767;SHT31;68092;51.982;5.680;2023-11-19T16:10:44;15.9;64.3
78767;SHT31;68092;51.982;5.680;2023-11-19T16:13:13;15.9;64.5
78767;SHT31;68092;51.982;5.680;2023-11-19T16:15:42;15.9;64.4
78767;SHT31;68092;51.982;5.680;2023-11-19T16:18:11;15.9;64.5
78767;SHT31;68092;51.982;5.680;2023-11-19T16:20:40;15.9;64.4
78767;SHT31;68092;51.982;5.680;2023-11-19T16:23:09;15.9;64.3
78767;SHT31;68092;51.982;5.680;2023-11-19T16:25:38;15.9;64.5
78767;SHT31;68092;51.982;5.680;2023-11-19T16:28:08;15.8;64.7